Time;durP1;ratioP1;P1;durP2;ratioP2;P2;SDS_P1;SDS_P2;PMS_P1;PMS_P2;Temp;Humidity;BMP_temperature;BMP_pressure;BME280_temperature;BME280_humidity;BME280_pressure;Samples;Min_cycle;Max_cycle;Signal;HPM_P1;HPM_P2
2021/09/10 00:01:43;;;;;;;14.10;11.40;;;;;;;;;;5015555;28;20690;-73
2021/09/10 00:04:09;;;;;;;17.47;12.50;;;;;;;;;;5015006;28;20220;-73
2021/09/10 00:06:36;;;;;;;13.83;12.53;;;;;;;;;;5016621;28;20235;-73
2021/09/10 00:09:02;;;;;;;16.43;12.27;;;;;;;;;;5016782;28;20216;-73
2021/09/10 00:11:28;;;;;;;15.87;13.10;;;;;;;;;;5015847;28;20229;-73
2021/09/10 00:13:55;;;;;;;15.43;12.53;;;;;;;;;;5014210;28;20274;-73
2021/09/10 00:16:21;;;;;;;13.57;12.27;;;;;;;;;;5015786;28;20266;-73
2021/09/10 00:18:49;;;;;;;14.40;12.97;;;;;;;;;;5016380;28;20217;-73
2021/09/10 00:21:16;;;;;;;13.77;12.37;;;;;;;;;;5014960;28;20229;-73
2021/09/10 00:23:42;;;;;;;15.33;13.03;;;;;;;;;;5016323;28;20224;-73
2021/09/10 00:26:09;;;;;;;15.10;12.90;;;;;;;;;;5016557;28;20213;-73
2021/09/10 00:28:35;;;;;;;15.73;14.10;;;;;;;;;;5015065;28;20258;-73
2021/09/10 00:31:02;;;;;;;15.83;14.03;;;;;;;;;;5015629;28;20545;-74
2021/09/10 00:33:28;;;;;;;16.00;14.27;;;;;;;;;;5015158;28;20317;-74
2021/09/10 00:35:56;;;;;;;15.83;14.10;;;;;;;;;;5020099;28;20273;-74
2021/09/10 00:38:23;;;;;;;16.97;13.67;;;;;;;;;;5020554;28;20239;-73
2021/09/10 00:40:49;;;;;;;16.57;13.63;;;;;;;;;;5018732;28;20216;-73
2021/09/10 00:43:15;;;;;;;14.13;12.73;;;;;;;;;;5019499;28;20271;-74
2021/09/10 00:45:43;;;;;;;15.53;13.70;;;;;;;;;;5020031;28;21084;-73
2021/09/10 00:48:10;;;;;;;15.93;14.17;;;;;;;;;;5017617;28;20228;-73
2021/09/10 00:50:37;;;;;;;17.97;13.17;;;;;;;;;;5019917;28;20780;-73
2021/09/10 00:53:05;;;;;;;17.07;14.77;;;;;;;;;;5018708;28;20230;-73
2021/09/10 00:55:32;;;;;;;17.67;15.77;;;;;;;;;;5019814;28;20219;-73
2021/09/10 00:57:59;;;;;;;24.20;19.50;;;;;;;;;;5020179;28;20616;-73
2021/09/10 01:00:25;;;;;;;18.97;16.87;;;;;;;;;;5018001;28;20228;-73
2021/09/10 01:02:52;;;;;;;21.07;18.87;;;;;;;;;;5019646;28;20282;-73
2021/09/10 01:05:19;;;;;;;19.57;17.57;;;;;;;;;;5019263;28;20272;-73
2021/09/10 01:07:48;;;;;;;20.80;18.47;;;;;;;;;;5017935;28;20246;-73
2021/09/10 01:10:16;;;;;;;19.97;17.87;;;;;;;;;;5020149;28;20216;-73
2021/09/10 01:12:43;;;;;;;23.23;20.37;;;;;;;;;;5020097;28;20269;-73
2021/09/10 01:15:10;;;;;;;24.93;22.43;;;;;;;;;;5018412;28;20223;-73
2021/09/10 01:17:38;;;;;;;26.13;23.47;;;;;;;;;;5017056;28;20212;-73
2021/09/10 01:20:06;;;;;;;26.67;24.00;;;;;;;;;;5017636;28;20219;-73
2021/09/10 01:22:33;;;;;;;30.33;27.27;;;;;;;;;;5018318;28;20250;-73
2021/09/10 01:25:11;;;;;;;30.40;27.33;;;;;;;;;;5019348;28;20214;-73
2021/09/10 01:27:38;;;;;;;32.53;29.03;;;;;;;;;;5019012;28;20323;-73
2021/09/10 01:30:05;;;;;;;34.53;31.03;;;;;;;;;;5017462;28;20334;-73
2021/09/10 01:32:32;;;;;;;36.03;32.27;;;;;;;;;;5018998;28;20237;-73
2021/09/10 01:34:58;;;;;;;35.43;31.87;;;;;;;;;;5019209;28;20278;-73
2021/09/10 01:37:24;;;;;;;38.20;33.90;;;;;;;;;;5018554;28;20684;-73
2021/09/10 01:39:51;;;;;;;36.70;32.90;;;;;;;;;;5017910;28;20214;-73
2021/09/10 01:42:19;;;;;;;38.93;34.80;;;;;;;;;;5016965;28;20222;-73
2021/09/10 01:44:45;;;;;;;39.13;35.03;;;;;;;;;;5018417;28;20605;-73
2021/09/10 01:47:12;;;;;;;42.77;38.07;;;;;;;;;;5015349;28;20705;-73
2021/09/10 01:49:38;;;;;;;42.13;37.73;;;;;;;;;;5018058;28;20292;-73
2021/09/10 01:52:05;;;;;;;41.13;37.00;;;;;;;;;;5018616;28;20651;-73
2021/09/10 01:54:32;;;;;;;41.83;37.63;;;;;;;;;;5016800;28;20222;-73
2021/09/10 01:56:58;;;;;;;43.63;39.17;;;;;;;;;;5017966;28;20224;-75
2021/09/10 01:59:26;;;;;;;43.27;38.67;;;;;;;;;;5018021;28;20713;-75
2021/09/10 02:01:52;;;;;;;44.83;40.13;;;;;;;;;;5015845;28;20290;-75
2021/09/10 02:04:19;;;;;;;47.97;41.27;;;;;;;;;;5018413;28;20263;-75
2021/09/10 02:06:46;;;;;;;45.80;40.97;;;;;;;;;;5019413;28;20237;-73
2021/09/10 02:09:12;;;;;;;45.97;41.07;;;;;;;;;;5016331;28;20240;-73
2021/09/10 02:11:39;;;;;;;48.87;43.33;;;;;;;;;;5017397;28;20212;-73
2021/09/10 02:14:05;;;;;;;51.20;45.70;;;;;;;;;;5018366;28;20281;-73
2021/09/10 02:16:33;;;;;;;49.20;44.30;;;;;;;;;;5014237;28;20215;-73
2021/09/10 02:19:00;;;;;;;50.10;45.00;;;;;;;;;;5017095;28;20215;-73
2021/09/10 02:21:26;;;;;;;47.27;42.13;;;;;;;;;;5016716;28;20228;-73
2021/09/10 02:23:52;;;;;;;49.00;43.73;;;;;;;;;;5017499;28;20219;-73
2021/09/10 02:26:19;;;;;;;48.30;43.20;;;;;;;;;;5015546;28;20211;-73
2021/09/10 02:28:45;;;;;;;49.07;44.17;;;;;;;;;;5017318;28;20245;-73
2021/09/10 02:31:11;;;;;;;45.73;41.07;;;;;;;;;;5016579;28;20223;-73
2021/09/10 02:33:39;;;;;;;49.10;44.00;;;;;;;;;;5014221;28;20273;-73
2021/09/10 02:36:06;;;;;;;49.30;44.07;;;;;;;;;;5018922;28;20226;-73
2021/09/10 02:38:32;;;;;;;47.03;42.23;;;;;;;;;;5015251;28;20704;-73
2021/09/10 02:40:59;;;;;;;48.90;43.70;;;;;;;;;;5016180;28;20213;-73
2021/09/10 02:43:25;;;;;;;51.57;45.60;;;;;;;;;;5015955;28;20301;-73
2021/09/10 02:45:51;;;;;;;47.67;42.43;;;;;;;;;;5014740;28;20273;-73
2021/09/10 02:48:18;;;;;;;50.17;44.90;;;;;;;;;;5014033;28;20243;-73
2021/09/10 02:50:45;;;;;;;49.97;44.80;;;;;;;;;;5018583;28;20265;-73
2021/09/10 02:53:12;;;;;;;49.70;44.00;;;;;;;;;;5016194;28;20573;-73
2021/09/10 02:55:38;;;;;;;47.70;42.73;;;;;;;;;;5017959;28;20212;-73
2021/09/10 02:58:04;;;;;;;49.70;44.10;;;;;;;;;;5015469;28;20211;-73
2021/09/10 03:00:31;;;;;;;50.00;45.00;;;;;;;;;;5017659;28;20219;-73
2021/09/10 03:02:57;;;;;;;50.17;44.63;;;;;;;;;;5014568;28;20207;-73
2021/09/10 03:05:24;;;;;;;51.03;45.50;;;;;;;;;;5016675;28;20662;-73
2021/09/10 03:07:52;;;;;;;50.17;45.00;;;;;;;;;;5016599;28;20247;-73
2021/09/10 03:10:18;;;;;;;49.27;43.90;;;;;;;;;;5015629;28;20216;-73
2021/09/10 03:12:45;;;;;;;51.23;44.30;;;;;;;;;;5016375;28;20273;-73
2021/09/10 03:15:13;;;;;;;52.83;46.17;;;;;;;;;;5015445;28;20274;-73
2021/09/10 03:17:39;;;;;;;50.80;45.23;;;;;;;;;;5014652;28;20274;-73
2021/09/10 03:20:07;;;;;;;52.67;47.07;;;;;;;;;;5017209;28;20218;-73
2021/09/10 03:22:34;;;;;;;51.37;45.77;;;;;;;;;;5015065;28;20236;-73
2021/09/10 03:25:03;;;;;;;52.93;47.10;;;;;;;;;;5015349;28;20227;-73
2021/09/10 03:27:29;;;;;;;54.60;47.80;;;;;;;;;;5016048;28;20261;-73
2021/09/10 03:29:56;;;;;;;59.90;48.10;;;;;;;;;;5014275;28;20251;-73
2021/09/10 03:32:22;;;;;;;55.27;47.37;;;;;;;;;;5014773;28;20230;-73
2021/09/10 03:34:49;;;;;;;54.47;46.37;;;;;;;;;;5015373;28;20658;-73
2021/09/10 03:37:15;;;;;;;55.23;46.40;;;;;;;;;;5017472;28;20259;-73
2021/09/10 03:39:42;;;;;;;54.27;45.90;;;;;;;;;;5015584;28;20380;-73
2021/09/10 03:42:10;;;;;;;53.60;47.30;;;;;;;;;;5014945;28;20220;-72
2021/09/10 03:44:36;;;;;;;55.87;49.77;;;;;;;;;;5016582;28;20987;-73
2021/09/10 03:47:04;;;;;;;52.47;46.70;;;;;;;;;;5014588;28;20611;-73
2021/09/10 03:49:31;;;;;;;56.50;49.50;;;;;;;;;;5016576;28;20738;-73
2021/09/10 03:51:57;;;;;;;56.60;47.90;;;;;;;;;;5014053;28;20697;-73
2021/09/10 03:54:24;;;;;;;57.23;48.37;;;;;;;;;;5015526;28;20650;-73
2021/09/10 03:56:50;;;;;;;60.00;50.13;;;;;;;;;;5015502;28;20658;-73
2021/09/10 03:59:18;;;;;;;57.37;49.47;;;;;;;;;;5016206;28;20261;-73
2021/09/10 04:01:44;;;;;;;58.13;49.27;;;;;;;;;;5015423;28;20269;-73
2021/09/10 04:04:11;;;;;;;61.80;51.00;;;;;;;;;;5013925;28;20272;-73
2021/09/10 04:06:37;;;;;;;59.70;49.57;;;;;;;;;;5015640;28;20231;-73
2021/09/10 04:09:04;;;;;;;58.70;51.20;;;;;;;;;;5014188;28;20234;-73
2021/09/10 04:11:30;;;;;;;58.27;49.13;;;;;;;;;;5016528;28;20249;-73
2021/09/10 04:13:56;;;;;;;58.83;48.03;;;;;;;;;;5016445;28;20728;-73
2021/09/10 04:16:24;;;;;;;58.63;49.90;;;;;;;;;;5015879;28;20277;-73
2021/09/10 04:18:51;;;;;;;61.00;49.67;;;;;;;;;;5015045;28;20284;-73
2021/09/10 04:21:17;;;;;;;59.07;49.83;;;;;;;;;;5014955;28;20235;-73
2021/09/10 04:23:43;;;;;;;60.83;49.63;;;;;;;;;;5014197;28;20292;-73
2021/09/10 04:26:10;;;;;;;60.60;49.87;;;;;;;;;;5014495;28;20285;-73
2021/09/10 04:28:36;;;;;;;63.03;51.23;;;;;;;;;;5015029;28;20302;-73
2021/09/10 04:31:03;;;;;;;54.57;47.17;;;;;;;;;;5015367;28;20250;-73
2021/09/10 04:33:30;;;;;;;57.17;48.07;;;;;;;;;;5014422;28;20211;-73
2021/09/10 04:35:57;;;;;;;63.23;49.47;;;;;;;;;;5012228;28;20219;-73
2021/09/10 04:38:25;;;;;;;56.17;48.83;;;;;;;;;;5013441;28;20270;-73
2021/09/10 04:40:51;;;;;;;62.13;48.10;;;;;;;;;;5014389;28;20208;-72
2021/09/10 04:43:17;;;;;;;56.67;46.77;;;;;;;;;;5015333;28;20251;-73
2021/09/10 04:45:44;;;;;;;58.90;45.43;;;;;;;;;;5012685;28;20219;-73
2021/09/10 04:48:10;;;;;;;58.13;47.20;;;;;;;;;;5013622;28;20212;-73
2021/09/10 04:50:39;;;;;;;57.10;46.90;;;;;;;;;;5014024;28;20799;-72
2021/09/10 04:53:05;;;;;;;55.07;45.37;;;;;;;;;;5013928;28;20293;-72
2021/09/10 04:55:31;;;;;;;61.67;46.30;;;;;;;;;;5015564;28;20215;-73
2021/09/10 04:57:58;;;;;;;65.77;46.87;;;;;;;;;;5013083;28;20212;-73
2021/09/10 05:00:25;;;;;;;53.15;46.47;;;;;;;;;;5013826;28;20819;-75
2021/09/10 05:02:51;;;;;;;64.63;45.93;;;;;;;;;;5014466;28;20221;-75
2021/09/10 05:05:19;;;;;;;62.70;47.40;;;;;;;;;;5013379;28;20568;-75
2021/09/10 05:07:47;;;;;;;55.57;44.73;;;;;;;;;;5013829;28;20285;-75
2021/09/10 05:10:13;;;;;;;58.50;45.97;;;;;;;;;;5015435;28;20263;-75
2021/09/10 05:12:39;;;;;;;54.40;43.90;;;;;;;;;;5014306;28;20219;-75
2021/09/10 05:15:08;;;;;;;52.87;42.70;;;;;;;;;;5014914;28;20294;-75
2021/09/10 05:17:34;;;;;;;55.83;43.50;;;;;;;;;;5013853;28;20705;-75
2021/09/10 05:20:03;;;;;;;54.67;43.33;;;;;;;;;;5014645;28;20216;-75
2021/09/10 05:22:29;;;;;;;53.63;42.10;;;;;;;;;;5017089;28;20342;-75
2021/09/10 05:24:57;;;;;;;47.23;41.13;;;;;;;;;;5017382;28;20350;-75
2021/09/10 05:27:24;;;;;;;51.43;41.57;;;;;;;;;;5016193;28;20218;-75
2021/09/10 05:29:50;;;;;;;47.20;41.43;;;;;;;;;;5017167;28;21303;-75
2021/09/10 05:32:16;;;;;;;50.10;41.60;;;;;;;;;;5016806;28;20211;-75
2021/09/10 05:34:43;;;;;;;45.27;40.00;;;;;;;;;;5017133;28;20272;-75
2021/09/10 05:37:09;;;;;;;46.60;41.43;;;;;;;;;;5016709;28;20233;-75
2021/09/10 05:39:35;;;;;;;48.97;40.37;;;;;;;;;;5017694;28;20205;-75
2021/09/10 05:42:04;;;;;;;48.70;41.10;;;;;;;;;;5019571;28;20212;-75
2021/09/10 05:44:30;;;;;;;43.70;38.53;;;;;;;;;;5016967;28;20616;-75
2021/09/10 05:46:57;;;;;;;47.27;40.13;;;;;;;;;;5018266;28;20399;-75
2021/09/10 05:49:23;;;;;;;43.57;38.83;;;;;;;;;;5017295;28;20240;-75
2021/09/10 05:51:49;;;;;;;41.07;36.67;;;;;;;;;;5015418;28;20286;-75
2021/09/10 05:54:16;;;;;;;43.17;38.47;;;;;;;;;;5015486;28;20210;-75
2021/09/10 05:56:42;;;;;;;42.87;38.17;;;;;;;;;;5015562;28;20265;-75
2021/09/10 05:59:10;;;;;;;43.37;38.70;;;;;;;;;;5017045;28;20685;-75
2021/09/10 06:01:36;;;;;;;44.90;40.00;;;;;;;;;;5016403;28;20203;-75
2021/09/10 06:04:03;;;;;;;44.57;38.07;;;;;;;;;;5018241;28;20208;-75
2021/09/10 06:06:29;;;;;;;47.83;40.53;;;;;;;;;;5015709;28;20236;-75
2021/09/10 06:08:56;;;;;;;47.87;39.17;;;;;;;;;;5015210;28;20293;-75
2021/09/10 06:11:22;;;;;;;41.80;37.30;;;;;;;;;;5015222;28;20216;-75
2021/09/10 06:13:49;;;;;;;44.03;36.50;;;;;;;;;;5014728;28;20219;-75
2021/09/10 06:16:17;;;;;;;42.93;38.40;;;;;;;;;;5015022;28;20291;-73
2021/09/10 06:18:43;;;;;;;42.60;37.57;;;;;;;;;;5015498;28;20681;-73
2021/09/10 06:21:10;;;;;;;40.13;36.13;;;;;;;;;;5015907;28;20237;-73
2021/09/10 06:23:39;;;;;;;40.83;36.53;;;;;;;;;;5015821;28;21101;-73
2021/09/10 06:26:05;;;;;;;38.43;34.40;;;;;;;;;;5013734;28;20307;-75
2021/09/10 06:28:32;;;;;;;43.73;35.50;;;;;;;;;;5014921;28;20208;-76
2021/09/10 06:31:01;;;;;;;36.70;32.93;;;;;;;;;;5015297;28;20637;-76
2021/09/10 06:33:28;;;;;;;38.63;34.47;;;;;;;;;;5014879;28;20852;-76
2021/09/10 06:35:55;;;;;;;38.20;34.30;;;;;;;;;;5014983;28;20215;-76
2021/09/10 06:38:21;;;;;;;35.67;32.07;;;;;;;;;;5014367;28;20238;-76
2021/09/10 06:40:48;;;;;;;44.13;33.77;;;;;;;;;;5015349;28;20348;-76
2021/09/10 06:43:14;;;;;;;37.30;33.50;;;;;;;;;;5015238;28;20215;-76
2021/09/10 06:45:43;;;;;;;73.33;36.37;;;;;;;;;;5015035;28;20235;-76
2021/09/10 06:48:10;;;;;;;40.57;33.93;;;;;;;;;;5013383;28;20243;-76
2021/09/10 06:50:38;;;;;;;36.70;32.53;;;;;;;;;;5014762;28;20294;-76
2021/09/10 06:53:04;;;;;;;36.27;32.60;;;;;;;;;;5014751;28;20255;-76
2021/09/10 06:55:30;;;;;;;34.87;31.37;;;;;;;;;;5013476;28;20215;-76
2021/09/10 06:57:57;;;;;;;36.30;32.50;;;;;;;;;;5014430;28;20222;-76
2021/09/10 07:00:23;;;;;;;35.03;31.53;;;;;;;;;;5014331;28;21083;-76
2021/09/10 07:02:50;;;;;;;35.17;30.87;;;;;;;;;;5013660;28;20214;-76
2021/09/10 07:05:16;;;;;;;34.20;30.83;;;;;;;;;;5013083;28;20215;-76
2021/09/10 07:07:44;;;;;;;33.53;30.23;;;;;;;;;;5014299;28;20240;-75
2021/09/10 07:10:11;;;;;;;34.63;30.93;;;;;;;;;;5015326;28;20231;-76
2021/09/10 07:12:37;;;;;;;33.93;30.50;;;;;;;;;;5014555;28;20262;-76
2021/09/10 07:15:05;;;;;;;32.60;29.50;;;;;;;;;;5012961;28;20219;-75
2021/09/10 07:17:32;;;;;;;32.70;29.37;;;;;;;;;;5014548;28;20418;-76
2021/09/10 07:19:59;;;;;;;34.27;30.80;;;;;;;;;;5012559;28;20235;-77
2021/09/10 07:22:25;;;;;;;32.23;28.97;;;;;;;;;;5015122;28;20519;-76
2021/09/10 07:24:53;;;;;;;32.80;28.53;;;;;;;;;;5013964;28;20239;-76
2021/09/10 07:27:20;;;;;;;33.90;29.40;;;;;;;;;;5013073;28;20207;-76
2021/09/10 07:29:46;;;;;;;33.23;29.87;;;;;;;;;;5012930;28;20255;-76
2021/09/10 07:32:12;;;;;;;33.00;29.77;;;;;;;;;;5012814;28;20268;-76
2021/09/10 07:34:39;;;;;;;34.10;29.17;;;;;;;;;;5014243;28;20300;-76
2021/09/10 07:37:05;;;;;;;37.00;29.30;;;;;;;;;;5013198;28;20285;-76
2021/09/10 07:39:32;;;;;;;35.17;31.50;;;;;;;;;;5013512;28;20216;-76
2021/09/10 07:42:00;;;;;;;33.40;29.90;;;;;;;;;;5014572;28;20559;-74
2021/09/10 07:44:27;;;;;;;33.60;27.23;;;;;;;;;;5013474;28;20573;-74
2021/09/10 07:46:54;;;;;;;31.90;28.83;;;;;;;;;;5015134;28;20204;-74
2021/09/10 07:49:21;;;;;;;35.33;29.37;;;;;;;;;;5012337;28;20775;-74
2021/09/10 07:51:47;;;;;;;33.90;30.37;;;;;;;;;;5012858;28;20290;-74
2021/09/10 07:54:14;;;;;;;37.27;30.73;;;;;;;;;;5015357;28;20231;-74
2021/09/10 07:59:12;;;;;;;33.33;30.00;;;;;;;;;;4323913;27;1878912;-74
2021/09/10 08:01:39;;;;;;;32.30;29.23;;;;;;;;;;5090160;28;20213;-74
2021/09/10 08:04:05;;;;;;;39.23;30.90;;;;;;;;;;5091653;28;20735;-73
2021/09/10 08:06:33;;;;;;;33.50;30.10;;;;;;;;;;5091087;28;20762;-74
2021/09/10 08:09:00;;;;;;;33.93;30.67;;;;;;;;;;5090436;28;20217;-74
2021/09/10 08:11:29;;;;;;;33.30;30.20;;;;;;;;;;5088791;28;20205;-74
2021/09/10 08:13:56;;;;;;;33.17;29.57;;;;;;;;;;5089844;28;20269;-73
2021/09/10 08:16:23;;;;;;;31.00;28.03;;;;;;;;;;5089899;28;20871;-73
2021/09/10 08:18:50;;;;;;;34.90;30.47;;;;;;;;;;5088895;28;20232;-73
2021/09/10 08:21:16;;;;;;;35.53;30.17;;;;;;;;;;5089986;28;20279;-72
2021/09/10 08:23:43;;;;;;;31.60;28.40;;;;;;;;;;5089354;28;20221;-73
2021/09/10 08:26:09;;;;;;;35.03;30.57;;;;;;;;;;5086496;28;20217;-73
2021/09/10 08:28:35;;;;;;;32.33;29.00;;;;;;;;;;5089982;28;20370;-72
2021/09/10 08:31:02;;;;;;;33.50;30.10;;;;;;;;;;5089823;28;20295;-73
2021/09/10 08:33:30;;;;;;;32.23;28.87;;;;;;;;;;5088449;28;20213;-73
2021/09/10 08:35:56;;;;;;;34.17;30.77;;;;;;;;;;5089767;28;20208;-73
2021/09/10 08:38:23;;;;;;;31.80;28.80;;;;;;;;;;5089637;28;20245;-73
2021/09/10 08:40:50;;;;;;;38.00;32.07;;;;;;;;;;5091256;28;20659;-73
2021/09/10 08:43:19;;;;;;;32.90;29.70;;;;;;;;;;5090049;28;20271;-73
2021/09/10 08:45:45;;;;;;;33.33;29.73;;;;;;;;;;5090985;28;20218;-72
2021/09/10 08:48:12;;;;;;;34.03;30.63;;;;;;;;;;5090772;28;20213;-73
2021/09/10 08:50:39;;;;;;;35.33;31.93;;;;;;;;;;5089260;28;20814;-73
2021/09/10 08:53:06;;;;;;;35.50;32.17;;;;;;;;;;5090133;28;20274;-74
2021/09/10 08:55:32;;;;;;;35.63;32.07;;;;;;;;;;5090390;28;20286;-74
2021/09/10 08:57:58;;;;;;;37.50;33.70;;;;;;;;;;5089024;28;20242;-72
2021/09/10 09:00:30;;;;;;;37.83;33.90;;;;;;;;;;5089950;28;20248;-74
2021/09/10 09:03:01;;;;;;;39.97;36.33;;;;;;;;;;5091251;28;20218;-74
2021/09/10 09:05:29;;;;;;;39.93;35.90;;;;;;;;;;5089422;28;20272;-74
2021/09/10 09:08:08;;;;;;;37.87;34.23;;;;;;;;;;5086635;28;20255;-74
2021/09/10 09:10:57;;;;;;;45.60;35.90;;;;;;;;;;5074757;28;20460;-74
2021/09/10 09:13:25;;;;;;;40.07;36.20;;;;;;;;;;5073784;28;20215;-74
2021/09/10 09:16:12;;;;;;;40.77;36.97;;;;;;;;;;5074490;28;20615;-74
2021/09/10 09:18:40;;;;;;;40.33;36.47;;;;;;;;;;5074639;28;20226;-74
2021/09/10 09:21:06;;;;;;;43.30;39.40;;;;;;;;;;5073506;28;20212;-74
2021/09/10 09:23:35;;;;;;;42.33;38.47;;;;;;;;;;5062611;28;20550;-73
2021/09/10 09:26:02;;;;;;;42.80;38.63;;;;;;;;;;5075909;28;20440;-75
2021/09/10 09:28:30;;;;;;;41.90;38.00;;;;;;;;;;5075444;28;20211;-75
2021/09/10 09:30:58;;;;;;;39.37;35.93;;;;;;;;;;5073243;28;20535;-75
2021/09/10 09:33:25;;;;;;;38.57;34.63;;;;;;;;;;5078094;28;20229;-75
2021/09/10 09:35:56;;;;;;;37.40;33.87;;;;;;;;;;5074425;28;20212;-75
2021/09/10 09:38:25;;;;;;;34.90;31.37;;;;;;;;;;5073966;28;20262;-76
2021/09/10 09:40:55;;;;;;;32.63;29.47;;;;;;;;;;5074596;28;20238;-75
2021/09/10 09:43:23;;;;;;;32.43;29.73;;;;;;;;;;5073908;28;20220;-75
2021/09/10 09:45:51;;;;;;;30.33;27.43;;;;;;;;;;5073691;28;20205;-75
2021/09/10 09:48:18;;;;;;;30.53;27.83;;;;;;;;;;5073292;28;20969;-75
2021/09/10 09:50:45;;;;;;;30.43;27.87;;;;;;;;;;5076992;28;20307;-74
2021/09/10 09:53:13;;;;;;;29.53;27.10;;;;;;;;;;5074720;28;20228;-74
2021/09/10 09:55:40;;;;;;;34.07;31.27;;;;;;;;;;5074892;28;20217;-73
2021/09/10 09:58:08;;;;;;;34.53;31.53;;;;;;;;;;5074471;28;20229;-77
2021/09/10 10:00:36;;;;;;;36.87;33.67;;;;;;;;;;5074084;28;20247;-74
2021/09/10 10:03:04;;;;;;;38.70;34.63;;;;;;;;;;5075414;28;20753;-73
2021/09/10 10:05:31;;;;;;;39.20;35.50;;;;;;;;;;5075054;28;20310;-73
2021/09/10 10:08:03;;;;;;;37.47;34.17;;;;;;;;;;5074802;28;20216;-74
2021/09/10 10:10:35;;;;;;;37.17;34.13;;;;;;;;;;5075596;28;20207;-74
2021/09/10 10:13:05;;;;;;;38.53;34.60;;;;;;;;;;5074328;28;21154;-73
2021/09/10 10:15:33;;;;;;;37.93;34.77;;;;;;;;;;5073943;28;20221;-73
2021/09/10 10:18:00;;;;;;;37.00;33.90;;;;;;;;;;5074716;28;20282;-74
2021/09/10 10:20:52;;;;;;;40.87;37.37;;;;;;;;;;5073510;28;20262;-73
2021/09/10 10:23:55;;;;;;;38.37;34.77;;;;;;;;;;5073765;28;20225;-74
2021/09/10 10:26:37;;;;;;;33.10;30.37;;;;;;;;;;5073882;28;20216;-74
2021/09/10 10:29:07;;;;;;;48.73;32.03;;;;;;;;;;5072980;28;20659;-74
2021/09/10 10:32:00;;;;;;;32.30;29.50;;;;;;;;;;5074494;28;20306;-74
2021/09/10 10:34:27;;;;;;;34.47;31.63;;;;;;;;;;5073067;28;20529;-74
2021/09/10 10:36:54;;;;;;;32.87;29.83;;;;;;;;;;5072752;28;20282;-74
2021/09/10 10:39:27;;;;;;;32.03;29.40;;;;;;;;;;5073616;28;20241;-73
2021/09/10 10:41:56;;;;;;;33.63;30.40;;;;;;;;;;5075388;28;20544;-74
2021/09/10 10:44:47;;;;;;;30.80;28.07;;;;;;;;;;5073845;28;20217;-74
2021/09/10 10:47:17;;;;;;;29.27;26.80;;;;;;;;;;5060001;28;20606;-74
2021/09/10 10:49:45;;;;;;;27.90;25.00;;;;;;;;;;5075565;28;20221;-74
2021/09/10 10:52:35;;;;;;;31.17;28.57;;;;;;;;;;5072993;28;20216;-74
2021/09/10 10:55:19;;;;;;;29.03;26.67;;;;;;;;;;5074567;28;20667;-74
2021/09/10 10:57:46;;;;;;;29.83;27.23;;;;;;;;;;5079779;28;20216;-74
2021/09/10 11:00:58;;;;;;;28.40;25.77;;;;;;;;;;5072031;28;20329;-74
2021/09/10 11:03:50;;;;;;;29.80;27.40;;;;;;;;;;5072918;28;20234;-73
2021/09/10 11:06:39;;;;;;;28.63;26.00;;;;;;;;;;5056458;28;20220;-74
2021/09/10 11:09:10;;;;;;;25.40;22.67;;;;;;;;;;5072431;28;20892;-74
2021/09/10 11:11:37;;;;;;;22.83;20.87;;;;;;;;;;5075269;28;20235;-74
2021/09/10 11:14:07;;;;;;;26.20;22.23;;;;;;;;;;5071118;28;20307;-74
2021/09/10 11:16:34;;;;;;;39.13;22.87;;;;;;;;;;5073118;28;20320;-74
2021/09/10 11:19:02;;;;;;;23.27;21.17;;;;;;;;;;5072885;28;20244;-74
2021/09/10 11:21:30;;;;;;;23.47;21.37;;;;;;;;;;5068408;28;20227;-76
2021/09/10 11:24:08;;;;;;;25.83;20.73;;;;;;;;;;5073515;28;20290;-74
2021/09/10 11:26:35;;;;;;;20.63;18.87;;;;;;;;;;5071866;28;20204;-74
2021/09/10 11:29:10;;;;;;;22.80;20.70;;;;;;;;;;5072851;28;20316;-74
2021/09/10 11:31:36;;;;;;;20.50;18.90;;;;;;;;;;5073719;28;20282;-74
2021/09/10 11:34:04;;;;;;;29.83;19.97;;;;;;;;;;5073769;28;20268;-77
2021/09/10 11:36:31;;;;;;;30.50;18.23;;;;;;;;;;5073675;28;20265;-74
2021/09/10 11:39:03;;;;;;;19.13;17.27;;;;;;;;;;5074585;28;20243;-74
2021/09/10 11:41:31;;;;;;;42.27;18.97;;;;;;;;;;5073364;28;20218;-74
2021/09/10 11:44:05;;;;;;;18.47;15.03;;;;;;;;;;5074009;28;20216;-74
2021/09/10 11:46:32;;;;;;;17.07;15.30;;;;;;;;;;5072212;28;20235;-74
2021/09/10 11:48:59;;;;;;;30.97;17.37;;;;;;;;;;5071032;28;20330;-74
2021/09/10 11:51:43;;;;;;;22.30;16.97;;;;;;;;;;5071940;28;20213;-73
2021/09/10 11:54:13;;;;;;;30.30;16.70;;;;;;;;;;5070456;28;20213;-73
2021/09/10 11:56:39;;;;;;;43.87;16.33;;;;;;;;;;5074285;28;20609;-74
2021/09/10 11:59:24;;;;;;;17.43;15.77;;;;;;;;;;5071284;28;20329;-76
2021/09/10 12:01:52;;;;;;;24.20;17.60;;;;;;;;;;5073715;28;20244;-74
2021/09/10 12:04:30;;;;;;;18.13;16.47;;;;;;;;;;5071907;28;20254;-74
2021/09/10 12:06:59;;;;;;;18.20;16.53;;;;;;;;;;5071039;28;20208;-75
2021/09/10 12:09:28;;;;;;;18.53;16.60;;;;;;;;;;5071613;28;20217;-75
2021/09/10 12:12:00;;;;;;;18.50;16.67;;;;;;;;;;5072647;28;20300;-75
2021/09/10 12:14:36;;;;;;;16.43;15.10;;;;;;;;;;5072298;28;20664;-74
2021/09/10 12:17:11;;;;;;;16.67;15.13;;;;;;;;;;5072912;28;20232;-75
2021/09/10 12:20:04;;;;;;;16.27;14.83;;;;;;;;;;5073180;28;20220;-75
2021/09/10 12:22:56;;;;;;;24.30;12.93;;;;;;;;;;5053449;28;20416;-75
2021/09/10 12:25:42;;;;;;;13.53;12.33;;;;;;;;;;5071665;28;20198;-75
2021/09/10 12:28:20;;;;;;;16.57;14.10;;;;;;;;;;5071460;28;20213;-74
2021/09/10 12:30:48;;;;;;;15.13;13.60;;;;;;;;;;5073002;28;20213;-75
2021/09/10 12:33:17;;;;;;;13.50;12.00;;;;;;;;;;5071657;28;20229;-75
2021/09/10 12:35:44;;;;;;;12.20;11.00;;;;;;;;;;5073392;28;20215;-75
2021/09/10 12:38:14;;;;;;;15.90;11.33;;;;;;;;;;5072688;28;20746;-75
2021/09/10 12:40:44;;;;;;;13.77;12.43;;;;;;;;;;5072209;28;20787;-75
2021/09/10 12:43:12;;;;;;;14.00;12.60;;;;;;;;;;5071067;28;20652;-75
2021/09/10 12:45:38;;;;;;;20.60;13.53;;;;;;;;;;5075677;28;20213;-75
2021/09/10 12:48:06;;;;;;;13.97;12.63;;;;;;;;;;5076561;28;20599;-74
2021/09/10 12:50:33;;;;;;;15.77;13.10;;;;;;;;;;5074789;28;20216;-74
2021/09/10 12:52:59;;;;;;;13.77;12.50;;;;;;;;;;5075656;28;20606;-75
2021/09/10 12:55:27;;;;;;;14.00;12.83;;;;;;;;;;5075824;28;20221;-75
2021/09/10 12:57:54;;;;;;;14.53;12.93;;;;;;;;;;5075169;28;20219;-75
2021/09/10 13:00:21;;;;;;;14.77;13.27;;;;;;;;;;5073783;28;20300;-74
2021/09/10 13:02:47;;;;;;;13.50;12.20;;;;;;;;;;5076452;28;20386;-75
2021/09/10 13:05:14;;;;;;;34.27;14.60;;;;;;;;;;5076340;28;20215;-75
2021/09/10 13:07:42;;;;;;;14.07;12.70;;;;;;;;;;5076400;28;20288;-74
2021/09/10 13:10:10;;;;;;;16.63;14.37;;;;;;;;;;5076235;28;20322;-74
2021/09/10 13:12:38;;;;;;;19.60;13.87;;;;;;;;;;5074007;28;20262;-73
2021/09/10 13:15:05;;;;;;;21.30;19.00;;;;;;;;;;5074469;28;20604;-74
2021/09/10 13:17:32;;;;;;;19.80;17.93;;;;;;;;;;5076506;28;20589;-72
2021/09/10 13:19:58;;;;;;;22.97;20.97;;;;;;;;;;5075864;28;20295;-72
2021/09/10 13:22:25;;;;;;;26.37;23.97;;;;;;;;;;5075919;28;20897;-72
2021/09/10 13:24:51;;;;;;;25.90;23.80;;;;;;;;;;5077070;28;20210;-72
2021/09/10 13:27:19;;;;;;;28.03;25.70;;;;;;;;;;5073786;28;20609;-73
2021/09/10 13:29:47;;;;;;;30.43;27.03;;;;;;;;;;5076332;28;20221;-72
2021/09/10 13:32:15;;;;;;;29.30;26.70;;;;;;;;;;5076990;28;20235;-71
2021/09/10 13:34:42;;;;;;;28.47;25.97;;;;;;;;;;5078211;28;20585;-73
2021/09/10 13:37:11;;;;;;;27.80;25.40;;;;;;;;;;5074410;28;20317;-73
2021/09/10 13:39:38;;;;;;;28.20;25.70;;;;;;;;;;5077521;28;20241;-71
2021/09/10 13:42:04;;;;;;;28.37;26.03;;;;;;;;;;5072455;28;21160;-70
2021/09/10 13:44:31;;;;;;;27.77;25.37;;;;;;;;;;5075048;28;20217;-69
2021/09/10 13:46:59;;;;;;;26.97;24.70;;;;;;;;;;5075129;28;20228;-71
2021/09/10 13:49:25;;;;;;;27.60;25.40;;;;;;;;;;5074028;28;20609;-75
2021/09/10 13:51:53;;;;;;;26.47;24.17;;;;;;;;;;5075964;28;20213;-76
2021/09/10 13:54:19;;;;;;;32.20;29.20;;;;;;;;;;5074616;28;20293;-76
2021/09/10 13:56:46;;;;;;;28.07;25.67;;;;;;;;;;5076113;28;20546;-76
2021/09/10 13:59:12;;;;;;;28.10;25.63;;;;;;;;;;5073051;28;20283;-75
2021/09/10 14:01:39;;;;;;;42.83;29.83;;;;;;;;;;5076019;28;20272;-75
2021/09/10 14:04:07;;;;;;;35.97;31.70;;;;;;;;;;5072963;28;20214;-77
2021/09/10 14:06:33;;;;;;;36.13;30.53;;;;;;;;;;5073827;28;20213;-77
2021/09/10 14:09:00;;;;;;;35.37;25.07;;;;;;;;;;5073028;28;20647;-75
2021/09/10 14:11:26;;;;;;;53.73;28.57;;;;;;;;;;5075733;28;20509;-76
2021/09/10 14:13:52;;;;;;;38.47;30.97;;;;;;;;;;5073340;28;20279;-74
2021/09/10 14:16:19;;;;;;;75.97;43.13;;;;;;;;;;5074273;28;20217;-75
2021/09/10 14:18:45;;;;;;;68.20;45.60;;;;;;;;;;5074771;28;20244;-77
2021/09/10 14:21:13;;;;;;;41.23;34.73;;;;;;;;;;5073993;28;20644;-75
2021/09/10 14:23:40;;;;;;;74.20;42.57;;;;;;;;;;5076103;28;20637;-76
2021/09/10 14:26:06;;;;;;;46.87;38.93;;;;;;;;;;5076002;28;20208;-76